Terminal Aerodrome Forecast
Issued by NWS

Home | Current Version | Previous Version | Text Only | Print | Product List | Glossary On
Versions: 1 2 3 4 5 6 7 8 9 10 11 12 13 14 15 16 17 18 19 20 21
000
FTUS44 KTSA 240500
TAFXNA
TAF
KXNA 240525Z 2406/2506 32015G25KT 4SM -RA OVC011
     FM240800 29013KT P6SM BKN025
     FM241000 29012KT P6SM SCT025 BKN100
     FM241600 28011G23KT P6SM SKC
     FM250000 28005KT P6SM SKC=

USA.gov is the U.S. government's official web portal to all federal, state and local government web resources and services.